Terminal Aerodrome Forecast
Issued by NWS Grand Rapids, MI

Home | Current Version | Previous Version | Text Only | Print | Product List | Glossary On
Versions: 1 2 3 4 5 6 7 8 9 10 11 12 13 14 15 16 17 18 19 20
000
FTUS43 KGRR 150500
TAFGRR
TAF
KGRR 150540Z 1506/1606 17005KT P6SM FEW120
     FM151500 23005KT P6SM VCSH BKN050
     FM151700 25006KT 5SM -RA BR OVC025
     FM151900 28007KT 3SM -RA BR OVC012
     FM160100 30007KT 5SM BR VCSH OVC025
     FM160300 34004KT P6SM SKC=

USA.gov is the U.S. government's official web portal to all federal, state and local government web resources and services.